createdAt,value
2018-04-23T00:01:26.837Z,9.7
2018-04-23T00:11:26.550Z,8.1
2018-04-23T00:21:26.689Z,8.7
2018-04-23T00:31:26.308Z,7.8
2018-04-23T00:41:27.686Z,6.2
2018-04-23T00:51:27.344Z,9.2
2018-04-23T01:01:26.984Z,7.1
2018-04-23T01:11:30.598Z,6.4
2018-04-23T01:21:26.300Z,7.0
2018-04-23T01:31:26.945Z,8.4
2018-04-23T01:41:26.568Z,8.1
2018-04-23T01:51:27.252Z,8.8
2018-04-23T02:01:27.481Z,7.6
2018-04-23T02:11:27.039Z,5.6
2018-04-23T02:21:28.201Z,10.1
2018-04-23T02:31:27.096Z,7.0
2018-04-23T02:41:26.703Z,7.0
2018-04-23T02:51:26.469Z,5.1
2018-04-23T03:01:27.605Z,7.3
2018-04-23T03:11:27.577Z,7.4
2018-04-23T03:21:27.107Z,4.8
2018-04-23T03:31:27.167Z,6.8
2018-04-23T03:41:26.731Z,9.7
2018-04-23T03:51:28.118Z,7.7
2018-04-23T04:01:26.958Z,10.6
2018-04-23T04:11:27.085Z,7.4
2018-04-23T04:21:30.017Z,7.5
2018-04-23T04:31:26.464Z,8.1
2018-04-23T04:41:27.385Z,17.5
2018-04-23T04:51:27.462Z,11.7
2018-04-23T05:01:29.250Z,12.2
2018-04-23T05:11:27.009Z,18.0
2018-04-23T05:21:27.374Z,17.5
2018-04-23T05:31:27.812Z,12.7
2018-04-23T05:41:30.078Z,11.6
2018-04-23T05:51:27.192Z,11.0
2018-04-23T06:01:27.327Z,16.0
2018-04-23T06:11:27.210Z,19.5
2018-04-23T06:21:26.946Z,26.0
2018-04-23T06:31:28.236Z,18.4
2018-04-23T06:41:28.999Z,35.6
2018-04-23T06:51:26.893Z,23.6
2018-04-23T07:01:28.634Z,21.7
2018-04-23T07:11:29.549Z,17.1
2018-04-23T07:21:26.540Z,10.5
2018-04-23T07:31:27.472Z,11.3
2018-04-23T07:41:27.629Z,10.9
2018-04-23T07:51:27.569Z,11.4
2018-04-23T08:01:27.359Z,13.1
2018-04-23T08:11:27.131Z,13.4
2018-04-23T08:21:27.865Z,12.0
2018-04-23T08:31:27.525Z,14.3
2018-04-23T08:41:27.635Z,28.4
2018-04-23T08:51:29.912Z,35.3
2018-04-23T09:01:27.116Z,18.2
2018-04-23T09:11:27.077Z,21.0
2018-04-23T09:21:26.646Z,7.8
2018-04-23T09:31:26.804Z,9.4
2018-04-23T09:41:28.135Z,13.9
2018-04-23T09:51:27.712Z,18.9
2018-04-23T10:01:26.243Z,11.8
2018-04-23T10:11:26.920Z,6.2
2018-04-23T10:21:26.543Z,8.4
2018-04-23T10:31:29.294Z,7.0
2018-04-23T10:41:26.146Z,5.2
2018-04-23T10:51:26.299Z,7.1
2018-04-23T11:01:26.630Z,5.8
2018-04-23T11:11:26.589Z,8.9
2018-04-23T11:21:26.642Z,7.3
2018-04-23T11:31:25.757Z,15.2
2018-04-23T11:41:25.531Z,10.3
2018-04-23T11:51:27.520Z,6.4
2018-04-23T12:01:26.341Z,8.8
2018-04-23T12:11:27.274Z,7.3
2018-04-23T12:21:26.493Z,7.7
2018-04-23T12:31:26.711Z,8.5
2018-04-23T12:41:25.646Z,16.3
2018-04-23T12:51:26.579Z,6.9
2018-04-23T13:01:26.732Z,9.8
2018-04-23T13:11:27.297Z,7.7
2018-04-23T13:21:27.207Z,13.3
2018-04-23T13:31:26.192Z,10.7
2018-04-23T13:41:27.297Z,17.4
2018-04-23T13:51:28.330Z,9.4
2018-04-23T14:01:27.409Z,9.4
2018-04-23T14:11:27.495Z,10.4
2018-04-23T14:21:29.085Z,9.3
2018-04-23T14:31:26.338Z,16.2
2018-04-23T14:41:27.509Z,19.8
2018-04-23T14:51:25.717Z,15.4
2018-04-23T15:01:26.131Z,12.6
2018-04-23T15:11:27.153Z,11.6
2018-04-23T15:21:26.562Z,10.5
2018-04-23T15:31:26.291Z,13.1
2018-04-23T15:41:28.346Z,14.0
2018-04-23T15:51:27.421Z,17.3
2018-04-23T16:01:27.653Z,12.7
2018-04-23T16:11:25.817Z,19.1
2018-04-23T16:21:25.975Z,15.0
2018-04-23T16:31:26.423Z,13.6
2018-04-23T16:41:27.391Z,12.5
2018-04-23T16:51:27.127Z,15.7
2018-04-23T17:01:26.151Z,14.5
2018-04-23T17:11:26.884Z,12.4
2018-04-23T17:21:26.863Z,17.9
2018-04-23T17:31:26.141Z,11.1
2018-04-23T17:41:27.762Z,10.6
2018-04-23T17:51:25.638Z,11.9
2018-04-23T18:01:26.561Z,15.0
2018-04-23T18:11:26.897Z,19.0
2018-04-23T18:21:27.577Z,20.3
2018-04-23T18:31:27.441Z,14.9
2018-04-23T18:41:26.351Z,20.2
2018-04-23T18:51:26.293Z,16.9
2018-04-23T19:01:28.073Z,19.6
2018-04-23T19:11:26.019Z,21.3
2018-04-23T19:21:27.214Z,26.4
2018-04-23T19:31:26.340Z,24.4
2018-04-23T19:41:27.260Z,21.9
2018-04-23T19:51:28.167Z,21.1
2018-04-23T20:01:27.484Z,17.5
2018-04-23T20:11:27.220Z,21.9
2018-04-23T20:21:26.434Z,21.7
2018-04-23T20:31:27.525Z,19.2
2018-04-23T20:41:28.867Z,17.9
2018-04-23T20:51:26.943Z,22.9
2018-04-23T21:01:27.837Z,17.0
2018-04-23T21:11:28.704Z,17.8
2018-04-23T21:21:27.424Z,15.5
2018-04-23T21:31:27.249Z,15.8
2018-04-23T21:41:27.267Z,13.8
2018-04-23T21:51:28.224Z,14.6
2018-04-23T22:01:27.187Z,12.7
2018-04-23T22:11:29.744Z,13.8
2018-04-23T22:21:26.945Z,12.5
2018-04-23T22:31:27.460Z,15.7
2018-04-23T22:41:28.040Z,19.3
2018-04-23T22:51:26.771Z,15.3
2018-04-23T23:01:27.285Z,17.5
2018-04-23T23:11:28.426Z,15.2
2018-04-23T23:21:26.406Z,15.3
2018-04-23T23:31:27.463Z,16.6
2018-04-23T23:41:27.734Z,20.5
2018-04-23T23:51:26.645Z,20.2
